HOURLY OBS INDEX

059

Mid North Coast

COFFS HARBOUR AIRPORT

Site: 059151
Alt: 3.5m
km of


  Time     Wind        Temp  DP   Baro     Rain since   Rain past  Vis(m), Cloud(base in m), Weather
  local        km/h                         9am  last   hr   10m    
Mon 11:00  WSW 20/ 35  16.1  2.9  1015.1    0.0   0.0   0.0   0.0   10000 
Mon 11:30  WSW 26/ 41  16.7  3.4  1014.6    0.0   0.0   0.0   0.0   10000 
Mon 12:00    W 19/ 30  17.4  4.0  1014.3    0.0   0.0   0.0   0.0   10000|SC2010 
Mon 12:30  WSW 24/ 39  17.6  4.2  1013.9    0.0   0.0   0.0   0.0   10000|SC2010 
Mon 13:00  WSW 28/ 39  17.7  3.6  1013.6    0.0   0.0   0.0   0.0   10000 
Mon 13:23    W 28/ 46  17.8  4.4  1013.5    0.0   0.0  ----   0.0   10000 
Mon 13:30    W 22/ 33  18.6  5.1  1013.4    0.0   0.0   0.0   0.0   10000|SC2460 
Mon 14:00  WSW 22/ 37  17.2  5.2  1013.6    0.0   0.0   0.0   0.0   10000|OC2010 
Mon 14:30   SW 28/ 43  16.8  4.8  1013.7    0.0   0.0   0.0   0.0   10000|OC1890 OC2220 
Mon 15:00  WSW 30/ 50  16.6  4.3  1013.8    0.0   0.0   0.0   0.0   10000|BR2100 
Mon 15:30   SW 28/ 37  15.9  4.3  1014.1    0.0   0.0   0.0   0.0   10000|SC1830 BR2190 
Mon 16:00   SW 30/ 43  15.4  4.5  1014.7    0.0   0.0   0.0   0.0   10000|SC1380 BR1890 BR2190 
Mon 16:10   SW 28/ 46  15.2  4.9  1014.9    0.0   0.0   0.0   0.0   10000|BR1830 BR2190 BR2460 

KEMPSEY AIRPORT AWS

Site: 059007
Alt: 13.0m
6km WNW of KEMPSEY


  Time     Wind        Temp  DP   Baro     Rain since   Rain past  Vis(m), Cloud(base in m), Weather
  local        km/h                         9am  last   hr   10m    
Mon 11:00  WSW 19/ 24  15.8  2.6  1014.4    0.0   0.0   0.0   0.0   ----- 
Mon 11:30  WSW 20/ 32  16.9  2.9  1013.9    0.0   0.0   0.0   0.0   ----- 
Mon 12:00  WSW 30/ 39  17.0  3.7  1013.8    0.0   0.0   0.0   0.0   ----- 
Mon 12:30   SW 30/ 41  16.3  3.0  1013.9    0.0   0.0   0.0   0.0   ----- 
Mon 13:00   SW 30/ 37  16.3  3.4  1013.9    0.0   0.0   0.0   0.0   ----- 
Mon 13:30   SW 30/ 45  14.7  4.4  1014.1    0.0   0.0   0.0   0.0   ----- 
Mon 14:00   SW 26/ 39  15.4  4.2  1013.9    0.0   0.0   0.0   0.0   ----- 
Mon 14:04  WSW 28/ 46  15.3  3.8  1014.0    0.0   0.0  ----   0.0   ----- 
Mon 14:30   SW 32/ 45  15.3  4.4  1014.4    0.0   0.0   0.0   0.0   ----- 
Mon 14:41   SW 32/ 50  15.4  4.2  1014.5    0.0   0.0  ----   0.0   ----- 
Mon 15:00   SW 35/ 54  15.7  4.4  1014.9    0.0   0.0   0.0   0.0   ----- 
Mon 15:30   SW 37/ 52  14.7  4.1  1015.3    0.0   0.0   0.0   0.0   ----- 
Mon 15:40   SW 33/ 52  14.2  4.5  1015.3    0.0   0.0  ----   0.0   ----- 
Mon 16:00   SW 30/ 39  13.9  4.8  1015.4    0.0   0.0   0.0   0.0   -----